Time;durP1;ratioP1;P1;durP2;ratioP2;P2;SDS_P1;SDS_P2;PMS_P1;PMS_P2;Temp;Humidity;BMP_temperature;BMP_pressure;BME280_temperature;BME280_humidity;BME280_pressure;Samples;Min_cycle;Max_cycle;Signal;HPM_P1;HPM_P2
2021/03/02 00:01:13;;;;;;;0.63;0.40;;;;;;;2.34;75.17;100846.10;1665730;83;21108;-62
2021/03/02 00:03:41;;;;;;;0.70;0.40;;;;;;;2.35;75.18;100841.23;1698433;82;21369;-63
2021/03/02 00:06:09;;;;;;;0.80;0.50;;;;;;;2.36;75.14;100842.58;1701577;82;21157;-61
2021/03/02 00:08:37;;;;;;;1.00;0.50;;;;;;;2.37;75.08;100844.80;1702680;82;21169;-62
2021/03/02 00:11:06;;;;;;;1.30;0.60;;;;;;;2.37;75.06;100832.39;1705119;82;21243;-62
2021/03/02 00:13:33;;;;;;;1.77;0.60;;;;;;;2.35;75.04;100838.14;1703535;82;21600;-62
2021/03/02 00:16:03;;;;;;;2.47;0.63;;;;;;;2.34;75.01;100835.03;1700862;82;21635;-62
2021/03/02 00:18:35;;;;;;;1.57;0.60;;;;;;;2.36;75.05;100824.42;1704087;82;21200;-62
2021/03/02 00:21:06;;;;;;;1.40;0.60;;;;;;;2.39;75.02;100820.41;1706470;82;21160;-62
2021/03/02 00:23:37;;;;;;;1.10;0.60;;;;;;;2.40;75.05;100811.13;1705766;82;21274;-62
2021/03/02 00:26:04;;;;;;;1.90;0.70;;;;;;;2.42;75.03;100808.03;1707232;82;21180;-62
2021/03/02 00:28:31;;;;;;;1.50;0.60;;;;;;;2.42;75.01;100796.08;1702848;82;23195;-62
2021/03/02 00:31:00;;;;;;;1.43;0.60;;;;;;;2.44;75.00;100796.08;1702485;82;22799;-62
2021/03/02 00:33:27;;;;;;;2.07;0.70;;;;;;;2.43;74.97;100796.97;1703839;82;21204;-62
2021/03/02 00:35:56;;;;;;;1.93;0.70;;;;;;;2.39;74.98;100788.09;1710261;82;20981;-62
2021/03/02 00:38:24;;;;;;;1.20;0.80;;;;;;;2.39;75.03;100785.87;1703572;82;21363;-61
2021/03/02 00:40:51;;;;;;;2.60;1.00;;;;;;;2.40;74.93;100777.02;1703694;82;22658;-61
2021/03/02 00:43:18;;;;;;;1.57;0.90;;;;;;;2.41;74.94;100770.38;1700448;82;21256;-62
2021/03/02 00:45:47;;;;;;;1.90;0.93;;;;;;;2.42;74.93;100767.28;1705300;82;21201;-62
2021/03/02 00:48:15;;;;;;;2.37;0.90;;;;;;;2.43;74.90;100762.42;1700302;82;21199;-61
2021/03/02 00:50:43;;;;;;;2.87;0.77;;;;;;;2.44;74.89;100757.11;1679414;82;21176;-62
2021/03/02 00:53:12;;;;;;;1.77;0.80;;;;;;;2.45;74.87;100756.67;1672242;83;22309;-62
2021/03/02 00:55:41;;;;;;;3.70;0.90;;;;;;;2.46;74.79;100755.34;1702041;82;21378;-62
2021/03/02 00:58:08;;;;;;;2.13;1.10;;;;;;;2.46;74.79;100753.13;1706967;82;21251;-61
2021/03/02 01:00:36;;;;;;;2.97;1.10;;;;;;;2.45;74.82;100754.02;1705874;82;21556;-61
2021/03/02 01:03:07;;;;;;;3.20;1.20;;;;;;;2.43;74.75;100741.16;1701822;82;21231;-62
2021/03/02 01:05:36;;;;;;;4.53;1.63;;;;;;;2.40;74.79;100741.15;1702889;82;21276;-63
2021/03/02 01:08:04;;;;;;;1.73;0.93;;;;;;;2.39;74.78;100732.73;1676558;82;21568;-63
2021/03/02 01:10:34;;;;;;;2.00;0.80;;;;;;;2.39;74.80;100718.11;1707394;82;21240;-62
2021/03/02 01:13:03;;;;;;;3.53;0.60;;;;;;;2.38;74.78;100717.27;1700008;82;21244;-62
2021/03/02 01:15:30;;;;;;;1.10;0.70;;;;;;;2.37;74.79;100714.59;1687627;82;21226;-62
2021/03/02 01:17:58;;;;;;;1.37;0.70;;;;;;;2.35;74.81;100713.27;1707611;82;21410;-63
2021/03/02 01:20:25;;;;;;;3.43;0.60;;;;;;;2.34;74.80;100716.80;1701321;82;21984;-63
2021/03/02 01:22:53;;;;;;;1.37;0.77;;;;;;;2.33;74.83;100719.45;1705713;82;21164;-62
2021/03/02 01:25:21;;;;;;;1.17;0.87;;;;;;;2.28;74.84;100713.71;1702872;82;21210;-65
2021/03/02 01:27:48;;;;;;;1.60;0.70;;;;;;;2.25;74.87;100712.81;1709069;82;21782;-62
2021/03/02 01:30:18;;;;;;;1.33;0.77;;;;;;;2.23;74.93;100712.80;1679714;83;21325;-64
2021/03/02 01:32:45;;;;;;;2.13;0.90;;;;;;;2.23;74.99;100706.60;1705571;82;21171;-62
2021/03/02 01:35:13;;;;;;;2.33;0.90;;;;;;;2.22;75.09;100701.73;1702270;82;21188;-62
2021/03/02 01:37:40;;;;;;;5.27;1.00;;;;;;;2.23;75.08;100699.52;1688971;82;21169;-63
2021/03/02 01:40:14;;;;;;;3.57;0.63;;;;;;;2.25;75.14;100686.25;1709061;82;21708;-62
2021/03/02 01:42:41;;;;;;;1.73;0.70;;;;;;;2.23;75.09;100686.68;1707593;82;21247;-62
2021/03/02 01:45:10;;;;;;;2.03;0.90;;;;;;;2.20;75.12;100680.95;1704313;82;21635;-61
2021/03/02 01:47:38;;;;;;;2.73;0.80;;;;;;;2.15;75.19;100677.38;1704429;82;21149;-62
2021/03/02 01:50:07;;;;;;;3.43;1.00;;;;;;;2.11;75.25;100666.33;1706470;82;21391;-62
2021/03/02 01:52:35;;;;;;;2.10;0.80;;;;;;;2.10;75.30;100659.69;1706598;82;21208;-61
2021/03/02 01:55:05;;;;;;;2.30;1.20;;;;;;;2.08;75.38;100654.37;1701854;82;21639;-62
2021/03/02 01:57:32;;;;;;;2.37;0.80;;;;;;;2.06;75.46;100650.82;1704925;82;21155;-61
2021/03/02 02:00:03;;;;;;;2.10;0.90;;;;;;;2.06;75.53;100647.27;1691704;82;21104;-61
2021/03/02 02:03:04;;;;;;;1.20;0.70;;;;;;;2.04;75.55;100651.25;1691941;82;21419;-64
2021/03/02 02:05:34;;;;;;;4.07;1.30;;;;;;;2.00;75.71;100644.19;1686361;82;21164;-61
2021/03/02 02:08:03;;;;;;;2.33;1.03;;;;;;;1.93;75.78;100638.44;1704603;82;21213;-61
2021/03/02 02:10:40;;;;;;;2.03;0.77;;;;;;;1.90;75.82;100634.00;1676387;82;21867;-63
2021/03/02 02:13:15;;;;;;;4.60;0.90;;;;;;;1.88;75.92;100638.85;1724013;81;21716;-61
2021/03/02 02:15:42;;;;;;;;;;;;;;;1.87;76.03;100631.80;1733075;80;21128;-62
2021/03/02 02:18:20;;;;;;;1.97;0.80;;;;;;;1.86;76.12;100626.05;1730770;81;20241;-61
2021/03/02 02:21:12;;;;;;;3.10;1.27;;;;;;;1.82;76.20;100621.60;1731455;80;21581;-62
2021/03/02 02:24:01;;;;;;;2.30;0.90;;;;;;;1.79;76.30;100617.60;1728453;80;21190;-63
2021/03/02 02:26:45;;;;;;;2.97;0.90;;;;;;;1.75;76.41;100620.72;1729481;81;21167;-63
2021/03/02 02:29:15;;;;;;;3.07;0.80;;;;;;;1.75;76.51;100618.50;1728054;80;21207;-63
2021/03/02 02:31:43;;;;;;;2.57;1.10;;;;;;;1.72;76.62;100614.06;1735835;80;21078;-62
2021/03/02 02:34:11;;;;;;;3.87;1.00;;;;;;;1.70;76.73;100618.95;1735576;80;22030;-66
2021/03/02 02:36:39;;;;;;;1.90;1.00;;;;;;;1.70;76.78;100624.26;1731523;81;21209;-64
2021/03/02 02:39:07;;;;;;;10.73;2.23;;;;;;;1.69;76.91;100619.83;1734823;81;21861;-63
2021/03/02 02:41:34;;;;;;;2.63;1.13;;;;;;;1.70;76.90;100624.26;1730061;80;21121;-62
2021/03/02 02:44:03;;;;;;;2.07;1.00;;;;;;;1.69;76.99;100615.85;1732966;80;21111;-62
2021/03/02 02:46:31;;;;;;;4.73;1.00;;;;;;;1.67;77.08;100604.34;1738327;80;21561;-62
2021/03/02 02:48:58;;;;;;;2.77;0.80;;;;;;;1.67;77.15;100608.32;1730037;80;21163;-64
2021/03/02 02:51:25;;;;;;;2.43;0.87;;;;;;;1.69;77.19;100599.92;1732967;80;21131;-65
2021/03/02 02:53:52;;;;;;;1.47;0.83;;;;;;;1.70;77.25;100595.06;1730983;81;21139;-63
2021/03/02 02:56:20;;;;;;;2.43;1.10;;;;;;;1.70;77.28;100586.63;1733727;80;21127;-65
2021/03/02 02:59:08;;;;;;;2.10;1.30;;;;;;;1.67;77.27;100584.44;1731926;80;21009;-65
2021/03/02 03:01:41;;;;;;;2.07;0.90;;;;;;;1.64;77.40;100584.42;1732012;80;21967;-63
2021/03/02 03:04:11;;;;;;;3.30;1.00;;;;;;;1.63;77.41;100573.36;1741545;80;21124;-62
2021/03/02 03:06:41;;;;;;;2.27;0.90;;;;;;;1.62;77.46;100580.88;1731112;81;21171;-62
2021/03/02 03:09:09;;;;;;;1.33;1.00;;;;;;;1.62;77.50;100592.81;1730401;80;21222;-64
2021/03/02 03:11:43;;;;;;;2.00;1.00;;;;;;;1.62;77.56;100592.38;1730673;80;21362;-64
2021/03/02 03:14:13;;;;;;;1.77;1.23;;;;;;;1.61;77.56;100580.45;1729371;80;21179;-63
2021/03/02 03:16:42;;;;;;;3.57;1.10;;;;;;;1.58;77.59;100581.33;1735863;80;21112;-62
2021/03/02 03:19:25;;;;;;;4.63;1.40;;;;;;;1.57;77.66;100586.63;1738391;80;21104;-64
2021/03/02 03:21:52;;;;;;;6.70;1.50;;;;;;;1.59;77.68;100577.80;1732368;80;23127;-63
2021/03/02 03:24:21;;;;;;;3.37;1.40;;;;;;;1.60;77.69;100577.36;1734470;80;21262;-61
2021/03/02 03:26:49;;;;;;;3.57;1.20;;;;;;;1.61;77.72;100573.83;1734116;80;21203;-61
2021/03/02 03:29:16;;;;;;;3.33;1.37;;;;;;;1.60;77.74;100573.38;1735626;80;22257;-65
2021/03/02 03:31:44;;;;;;;2.53;1.57;;;;;;;1.59;77.77;100564.53;1708628;80;21191;-63
2021/03/02 03:34:13;;;;;;;2.13;1.63;;;;;;;1.58;77.80;100571.16;1730468;80;21625;-61
2021/03/02 03:36:41;;;;;;;2.17;1.67;;;;;;;1.57;77.78;100569.38;1734011;80;21609;-63
2021/03/02 03:39:08;;;;;;;4.27;1.40;;;;;;;1.57;77.76;100583.98;1730373;80;21239;-62
2021/03/02 03:41:36;;;;;;;2.53;1.60;;;;;;;1.56;77.80;100578.22;1732467;80;22237;-61
2021/03/02 03:44:03;;;;;;;4.47;1.80;;;;;;;1.55;77.87;100567.16;1732114;80;21250;-60
2021/03/02 03:46:30;;;;;;;3.37;1.40;;;;;;;1.53;77.91;100568.04;1732842;80;21214;-64
2021/03/02 03:48:58;;;;;;;4.27;1.97;;;;;;;1.53;77.92;100559.67;1737467;80;21223;-65
2021/03/02 03:51:26;;;;;;;2.53;1.77;;;;;;;1.51;77.87;100555.68;1731548;80;21204;-61
2021/03/02 03:53:53;;;;;;;3.67;2.27;;;;;;;1.47;77.89;100553.45;1737228;80;21626;-61
2021/03/02 03:56:20;;;;;;;3.97;2.27;;;;;;;1.47;77.97;100548.58;1730464;80;21181;-64
2021/03/02 03:58:47;;;;;;;4.80;2.10;;;;;;;1.47;78.01;100553.45;1731204;80;21796;-59
2021/03/02 04:01:15;;;;;;;4.63;1.73;;;;;;;1.50;78.07;100560.09;1732368;80;21274;-62
2021/03/02 04:03:42;;;;;;;5.90;2.77;;;;;;;1.52;78.05;100552.14;1735630;80;21598;-63
2021/03/02 04:06:10;;;;;;;4.13;3.10;;;;;;;1.53;78.07;100559.67;1732638;80;21194;-61
2021/03/02 04:08:38;;;;;;;7.27;3.67;;;;;;;1.50;78.08;100557.45;1731548;80;21226;-61
2021/03/02 04:11:05;;;;;;;5.47;3.13;;;;;;;1.49;78.12;100554.78;1737140;80;21194;-62
2021/03/02 04:13:33;;;;;;;8.63;2.63;;;;;;;1.47;78.16;100545.48;1736251;80;21977;-63
2021/03/02 04:16:00;;;;;;;5.07;2.40;;;;;;;1.48;78.21;100538.41;1734028;80;21195;-64
2021/03/02 04:18:28;;;;;;;8.13;3.07;;;;;;;1.50;78.25;100541.97;1733549;80;21246;-63
2021/03/02 04:20:56;;;;;;;6.33;3.00;;;;;;;1.49;78.25;100543.73;1737466;80;21665;-63
2021/03/02 04:23:23;;;;;;;6.83;4.63;;;;;;;1.51;78.26;100547.72;1688111;80;21144;-63
2021/03/02 04:25:50;;;;;;;8.57;4.43;;;;;;;1.50;78.22;100534.89;1736316;80;22761;-62
2021/03/02 04:28:17;;;;;;;7.83;4.60;;;;;;;1.45;78.26;100539.73;1733361;80;21199;-61
2021/03/02 04:30:44;;;;;;;5.57;4.00;;;;;;;1.41;78.28;100534.88;1729553;80;21191;-62
2021/03/02 04:33:13;;;;;;;7.97;4.03;;;;;;;1.40;78.34;100542.39;1731933;80;21195;-63
2021/03/02 04:35:41;;;;;;;6.07;4.93;;;;;;;1.39;78.38;100527.35;1733909;80;21164;-61
2021/03/02 04:38:09;;;;;;;9.07;4.87;;;;;;;1.39;78.40;100526.47;1733420;80;21669;-62
2021/03/02 04:40:36;;;;;;;9.43;6.13;;;;;;;1.34;78.48;100523.83;1735497;80;21227;-64
2021/03/02 04:43:04;;;;;;;7.43;4.87;;;;;;;1.29;78.53;100526.89;1735668;80;21188;-63
2021/03/02 04:45:33;;;;;;;8.07;5.67;;;;;;;1.27;78.67;100527.36;1730936;80;21203;-62
2021/03/02 04:48:00;;;;;;;6.70;4.47;;;;;;;1.25;78.70;100529.11;1733978;80;21610;-62
2021/03/02 04:50:27;;;;;;;11.03;4.53;;;;;;;1.26;78.81;100515.41;1733944;80;22415;-61
2021/03/02 04:52:54;;;;;;;8.97;5.40;;;;;;;1.29;78.88;100520.70;1736229;80;21200;-63
2021/03/02 04:55:22;;;;;;;12.67;6.63;;;;;;;1.32;78.90;100521.61;1733311;80;21211;-61
2021/03/02 04:57:49;;;;;;;12.07;7.47;;;;;;;1.32;78.92;100528.67;1736499;80;21239;-62
2021/03/02 05:00:17;;;;;;;10.40;7.30;;;;;;;1.29;78.95;100528.22;1729578;80;21259;-62
2021/03/02 05:02:44;;;;;;;13.57;7.47;;;;;;;1.28;79.03;100530.86;1733776;80;21542;-62
2021/03/02 05:05:13;;;;;;;13.00;7.73;;;;;;;1.28;79.07;100526.45;1737127;80;21211;-62
2021/03/02 05:07:40;;;;;;;8.80;6.77;;;;;;;1.27;79.10;100511.45;1733174;80;21942;-64
2021/03/02 05:10:09;;;;;;;14.17;7.87;;;;;;;1.25;79.23;100513.64;1732132;80;21202;-64
2021/03/02 05:12:36;;;;;;;19.53;9.03;;;;;;;1.22;79.31;100522.47;1741514;80;21147;-63
2021/03/02 05:15:08;;;;;;;12.90;8.47;;;;;;;1.22;79.38;100520.25;1740031;80;22311;-63
2021/03/02 05:17:39;;;;;;;15.60;9.98;;;;;;;1.21;79.37;100523.34;1739899;80;21187;-64
2021/03/02 05:20:12;;;;;;;14.27;8.00;;;;;;;1.21;79.44;100506.55;1689631;80;21123;-63
2021/03/02 05:25:04;;;;;;;12.70;8.63;;;;;;;1.23;79.63;100509.66;1790808;77;26810;-64
2021/03/02 05:27:31;;;;;;;15.33;9.87;;;;;;;1.19;79.69;100510.98;1768975;78;20973;-64
2021/03/02 05:29:58;;;;;;;13.80;9.67;;;;;;;1.22;79.67;100513.62;1764593;78;21526;-65
2021/03/02 05:32:26;;;;;;;14.60;9.77;;;;;;;1.22;79.66;100507.88;1762984;78;21210;-63
2021/03/02 05:34:54;;;;;;;14.97;8.63;;;;;;;1.24;79.63;100504.80;1765673;78;21452;-64
2021/03/02 05:37:22;;;;;;;17.23;10.70;;;;;;;1.26;79.67;100507.02;1710605;81;21208;-62
2021/03/02 05:39:49;;;;;;;18.53;9.40;;;;;;;1.25;79.60;100498.62;1684632;81;21503;-62
2021/03/02 05:42:16;;;;;;;15.43;10.00;;;;;;;1.28;79.66;100510.97;1704443;81;23023;-64
2021/03/02 05:44:45;;;;;;;18.80;9.97;;;;;;;1.32;79.68;100509.67;1695837;82;21193;-62
2021/03/02 05:47:14;;;;;;;16.10;10.53;;;;;;;1.35;79.62;100508.80;1706831;82;20969;-61
2021/03/02 05:49:42;;;;;;;20.90;11.43;;;;;;;1.33;79.56;100510.55;1699233;83;21135;-63
2021/03/02 05:52:12;;;;;;;19.87;11.00;;;;;;;1.32;79.58;100495.08;1696925;83;21137;-63
2021/03/02 05:54:39;;;;;;;18.50;11.87;;;;;;;1.33;79.58;100494.20;1696212;83;21645;-63
2021/03/02 05:57:07;;;;;;;18.57;10.90;;;;;;;1.34;79.63;100502.61;1690331;83;21267;-60
2021/03/02 05:59:35;;;;;;;20.20;11.37;;;;;;;1.37;79.63;100492.42;1698580;83;21152;-64
2021/03/02 06:02:02;;;;;;;17.77;11.17;;;;;;;1.40;79.56;100488.01;1698253;83;21546;-63
2021/03/02 06:04:30;;;;;;;20.67;12.53;;;;;;;1.43;79.53;100489.34;1703660;82;21270;-64
2021/03/02 06:07:01;;;;;;;22.80;13.67;;;;;;;1.45;79.47;100486.67;1692413;83;23625;-63
2021/03/02 06:09:29;;;;;;;22.07;13.33;;;;;;;1.44;79.43;100496.42;1722009;81;21211;-64
2021/03/02 06:12:05;;;;;;;18.97;11.67;;;;;;;1.44;79.43;100500.41;1718079;81;21218;-62
2021/03/02 06:14:35;;;;;;;21.93;11.73;;;;;;;1.45;79.39;100498.16;1727051;81;21227;-65
2021/03/02 06:17:04;;;;;;;17.03;10.57;;;;;;;1.47;79.33;100491.10;1719794;81;21214;-61
2021/03/02 06:19:43;;;;;;;18.93;11.27;;;;;;;1.48;79.28;100500.83;1721554;81;22563;-61
2021/03/02 06:22:33;;;;;;;19.83;11.83;;;;;;;1.47;79.26;100488.45;1722161;81;21171;-63
2021/03/02 06:25:01;;;;;;;20.97;12.50;;;;;;;1.47;79.27;100489.77;1704859;82;21517;-62
2021/03/02 06:27:31;;;;;;;22.00;12.43;;;;;;;1.48;79.25;100478.72;1700612;82;21658;-63
2021/03/02 06:30:13;;;;;;;19.07;12.07;;;;;;;1.48;79.28;100482.27;1703934;82;21204;-63
2021/03/02 06:32:44;;;;;;;20.23;12.77;;;;;;;1.53;79.27;100483.61;1704736;82;22329;-61
2021/03/02 06:35:13;;;;;;;21.60;11.27;;;;;;;1.57;79.17;100480.49;1737014;80;21108;-63
2021/03/02 06:37:45;;;;;;;23.03;12.90;;;;;;;1.57;79.14;100472.09;1722571;80;21478;-62
2021/03/02 06:40:16;;;;;;;20.37;10.70;;;;;;;1.58;79.14;100484.91;1682373;83;21239;-62
2021/03/02 06:42:45;;;;;;;21.63;13.67;;;;;;;1.58;79.13;100480.94;1744302;80;21183;-65
2021/03/02 06:45:14;;;;;;;24.87;13.43;;;;;;;1.58;79.09;100481.82;1685594;83;21506;-60
2021/03/02 06:47:43;;;;;;;25.50;12.83;;;;;;;1.56;79.06;100480.93;1685141;83;21668;-62
2021/03/02 06:50:18;;;;;;;20.93;11.53;;;;;;;1.57;79.06;100477.84;1689312;83;21176;-64
2021/03/02 06:52:45;;;;;;;22.33;13.17;;;;;;;1.61;79.09;100472.98;1735944;80;21542;-61
2021/03/02 06:55:22;;;;;;;22.67;12.97;;;;;;;1.62;79.08;100472.95;1736365;80;21399;-64
2021/03/02 06:57:50;;;;;;;26.30;14.57;;;;;;;1.64;79.03;100471.63;1704488;82;21278;-62
2021/03/02 07:00:33;;;;;;;24.30;14.63;;;;;;;1.64;78.95;100484.46;1739831;80;21228;-61
2021/03/02 07:03:01;;;;;;;23.23;13.97;;;;;;;1.63;78.93;100484.45;1691870;82;21625;-62
2021/03/02 07:05:28;;;;;;;21.63;12.43;;;;;;;1.62;78.92;100489.32;1738639;80;21308;-64
2021/03/02 07:07:55;;;;;;;25.87;13.23;;;;;;;1.64;78.86;100487.56;1738287;80;21432;-63
2021/03/02 07:10:24;;;;;;;22.97;12.80;;;;;;;1.64;78.89;100472.52;1740900;80;21376;-67
2021/03/02 07:12:55;;;;;;;21.37;12.10;;;;;;;1.67;78.87;100482.27;1737312;80;21768;-63
2021/03/02 07:15:24;;;;;;;21.70;11.80;;;;;;;1.68;78.82;100476.95;1686477;83;21492;-64
2021/03/02 07:17:53;;;;;;;28.47;13.83;;;;;;;1.70;78.81;100482.27;1736408;80;21176;-65
2021/03/02 07:20:24;;;;;;;28.40;14.90;;;;;;;1.69;78.71;100484.03;1738128;80;21157;-66
2021/03/02 07:22:54;;;;;;;24.20;13.93;;;;;;;1.67;78.69;100485.80;1734865;80;21381;-62
2021/03/02 07:25:22;;;;;;;24.87;12.93;;;;;;;1.69;78.70;100477.84;1688911;83;21372;-61
2021/03/02 07:27:52;;;;;;;23.37;13.37;;;;;;;1.71;78.66;100486.22;1737417;80;21601;-65
2021/03/02 07:30:20;;;;;;;26.43;13.77;;;;;;;1.75;78.60;100484.46;1738000;80;21596;-62
2021/03/02 07:32:48;;;;;;;25.77;15.30;;;;;;;1.78;78.49;100481.37;1736879;80;21355;-61
2021/03/02 07:35:18;;;;;;;33.87;16.93;;;;;;;1.80;78.38;100478.25;1735632;80;21380;-62
2021/03/02 07:37:45;;;;;;;29.73;14.17;;;;;;;1.82;78.24;100475.60;1736793;80;21260;-62
2021/03/02 07:40:16;;;;;;;28.03;14.27;;;;;;;1.81;78.25;100473.83;1736590;80;21537;-65
2021/03/02 07:42:43;;;;;;;30.70;14.57;;;;;;;1.81;78.20;100470.73;1734401;80;21224;-61
2021/03/02 07:45:17;;;;;;;31.53;15.17;;;;;;;1.81;78.08;100471.17;1738346;80;21136;-62
2021/03/02 07:47:58;;;;;;;31.27;14.83;;;;;;;1.83;78.03;100466.31;1739894;80;21693;-61
2021/03/02 07:50:31;;;;;;;29.50;14.30;;;;;;;1.87;77.91;100472.52;1742425;80;21244;-62
2021/03/02 07:53:22;;;;;;;33.20;15.80;;;;;;;1.90;77.87;100462.75;1735870;80;21168;-62
2021/03/02 07:56:22;;;;;;;37.53;16.43;;;;;;;1.92;77.71;100455.23;1689787;83;21195;-65
2021/03/02 07:59:27;;;;;;;34.50;15.30;;;;;;;1.90;77.63;100450.80;1736286;80;21537;-63
2021/03/02 08:02:17;;;;;;;37.58;16.60;;;;;;;1.88;77.50;100445.94;1603407;87;22485;-62
2021/03/02 08:04:49;;;;;;;33.03;14.23;;;;;;;1.87;77.47;100440.66;1603071;87;21830;-60
2021/03/02 08:07:26;;;;;;;32.30;15.57;;;;;;;1.91;77.53;100446.38;1591127;88;21210;-64
2021/03/02 08:10:00;;;;;;;37.67;17.17;;;;;;;1.93;77.46;100440.64;1604460;87;21231;-61
2021/03/02 08:12:34;;;;;;;;;;;;;;;1.94;77.36;100431.78;1608644;87;21238;-64
2021/03/02 08:15:19;;;;;;;40.50;16.57;;;;;;;1.96;77.34;100422.49;1603478;87;21260;-64
2021/03/02 08:17:47;;;;;;;;;;;;;;;1.95;77.23;100426.03;1606432;87;21238;-61
2021/03/02 08:20:14;;;;;;;42.63;17.30;;;;;;;1.96;77.29;100425.15;1605742;87;20327;-62
2021/03/02 08:22:45;;;;;;;39.73;15.07;;;;;;;1.98;77.30;100425.56;1603874;87;21222;-61
2021/03/02 08:25:27;;;;;;;40.40;16.53;;;;;;;1.99;77.29;100423.80;1592504;88;21248;-61
2021/03/02 08:28:00;;;;;;;47.93;18.00;;;;;;;2.01;77.29;100426.89;1604534;87;21636;-62
2021/03/02 08:30:37;;;;;;;40.17;15.73;;;;;;;2.03;77.12;100424.23;1592231;88;21946;-63
2021/03/02 08:33:13;;;;;;;42.27;18.40;;;;;;;2.05;77.19;100421.11;1604291;87;21747;-64
2021/03/02 08:35:42;;;;;;;43.90;19.17;;;;;;;2.08;77.09;100418.02;1590018;88;21304;-63
2021/03/02 08:38:13;;;;;;;47.13;19.43;;;;;;;2.09;77.07;100418.45;1605684;87;21118;-63
2021/03/02 08:40:46;;;;;;;50.97;21.67;;;;;;;2.11;77.05;100415.36;1595096;88;22143;-62
2021/03/02 08:43:23;;;;;;;47.45;18.37;;;;;;;2.10;77.02;100425.98;1607465;87;28235;-62
2021/03/02 08:45:56;;;;;;;43.80;17.33;;;;;;;2.09;77.02;100412.26;1609879;87;21164;-64
2021/03/02 08:48:31;;;;;;;43.10;17.40;;;;;;;2.10;76.97;100406.95;1601734;87;21770;-61
2021/03/02 08:51:05;;;;;;;39.40;17.03;;;;;;;2.14;77.02;100406.47;1607925;87;21139;-63
2021/03/02 08:53:41;;;;;;;39.63;19.00;;;;;;;2.17;76.98;100391.42;1610712;87;21238;-62
2021/03/02 08:56:22;;;;;;;48.73;21.23;;;;;;;2.18;76.84;100417.09;1609610;87;21653;-62
2021/03/02 08:59:02;;;;;;;44.13;18.50;;;;;;;2.19;76.78;100424.18;1605605;87;21211;-62
2021/03/02 09:01:34;;;;;;;46.63;20.47;;;;;;;2.21;76.81;100425.03;1606311;86;22453;-62
2021/03/02 09:04:11;;;;;;;51.80;19.37;;;;;;;2.21;76.76;100418.39;1607167;87;21235;-62
2021/03/02 09:06:48;;;;;;;46.90;17.63;;;;;;;2.21;76.68;100415.73;1606978;87;21518;-65
2021/03/02 09:09:18;;;;;;;45.33;18.57;;;;;;;2.20;76.61;100417.98;1604694;87;21742;-63
2021/03/02 09:11:56;;;;;;;38.00;15.87;;;;;;;2.18;76.41;100427.72;1604661;87;21254;-63
2021/03/02 09:14:35;;;;;;;43.27;18.00;;;;;;;2.17;76.44;100411.78;1606911;87;21806;-65
2021/03/02 09:17:04;;;;;;;44.23;18.43;;;;;;;2.19;76.49;100416.20;1610072;87;21238;-61
2021/03/02 09:19:40;;;;;;;46.93;19.63;;;;;;;2.20;76.52;100417.09;1582481;87;21410;-60
2021/03/02 09:22:10;;;;;;;40.30;17.50;;;;;;;2.19;76.56;100426.84;1608869;87;21226;-64
2021/03/02 09:24:50;;;;;;;50.43;18.43;;;;;;;2.17;76.61;100429.05;1605459;87;21205;-64
2021/03/02 09:27:19;;;;;;;38.63;16.17;;;;;;;2.17;76.60;100417.98;1604710;87;21235;-63
2021/03/02 09:29:51;;;;;;;40.73;17.00;;;;;;;2.16;76.68;100406.91;1605279;87;21163;-64
2021/03/02 09:32:24;;;;;;;42.57;18.17;;;;;;;2.17;76.67;100411.34;1607589;87;21222;-63
2021/03/02 09:35:07;;;;;;;40.57;18.17;;;;;;;2.19;76.60;100411.34;1597535;87;21206;-65
2021/03/02 09:37:39;;;;;;;38.10;15.63;;;;;;;2.19;76.52;100405.59;1600193;87;21154;-62
2021/03/02 09:40:12;;;;;;;41.47;17.17;;;;;;;2.16;76.59;100398.06;1600858;88;21283;-63
2021/03/02 09:42:41;;;;;;;34.43;14.77;;;;;;;2.14;76.49;100398.06;1602110;87;21147;-62
2021/03/02 09:45:19;;;;;;;39.73;16.30;;;;;;;2.14;76.56;100398.06;1600691;87;22144;-63
2021/03/02 09:47:48;;;;;;;35.97;15.33;;;;;;;2.17;76.63;100397.17;1606779;87;21753;-62
2021/03/02 09:50:18;;;;;;;35.03;16.43;;;;;;;2.21;76.62;100401.60;1606001;87;21658;-61
2021/03/02 09:52:50;;;;;;;41.60;16.37;;;;;;;2.25;76.51;100404.22;1604880;87;21226;-64
2021/03/02 09:55:32;;;;;;;40.47;16.43;;;;;;;2.28;76.52;100401.56;1606561;87;21238;-65
2021/03/02 09:58:16;;;;;;;44.47;17.93;;;;;;;2.31;76.44;100402.41;1605574;87;21713;-61
2021/03/02 10:00:53;;;;;;;43.17;17.13;;;;;;;2.28;76.42;100388.28;1608948;87;21350;-65
2021/03/02 10:03:23;;;;;;;35.33;15.70;;;;;;;2.27;76.37;100399.80;1616212;87;21233;-63
2021/03/02 10:05:58;;;;;;;34.50;14.40;;;;;;;2.28;76.35;100410.86;1614110;86;22815;-65
2021/03/02 10:08:40;;;;;;;28.95;14.13;;;;;;;2.30;76.36;100394.04;1616435;87;21158;-64
2021/03/02 10:11:16;;;;;;;35.70;15.93;;;;;;;2.33;76.30;100394.00;1616887;87;21452;-64
2021/03/02 10:13:53;;;;;;;36.63;16.13;;;;;;;2.37;76.23;100392.67;1615132;87;21862;-64
2021/03/02 10:16:28;;;;;;;34.90;16.63;;;;;;;2.42;76.11;100385.55;1617017;87;21191;-63
2021/03/02 10:19:06;;;;;;;35.27;14.93;;;;;;;2.41;76.04;100385.55;1617943;87;21810;-63
2021/03/02 10:21:49;;;;;;;39.70;16.57;;;;;;;2.39;76.00;100384.66;1608354;87;21646;-63
2021/03/02 10:24:27;;;;;;;35.73;16.53;;;;;;;2.41;75.91;100382.89;1618101;87;21431;-65
2021/03/02 10:27:00;;;;;;;31.77;14.90;;;;;;;2.42;75.91;100375.36;1616292;87;21229;-62
2021/03/02 10:29:29;;;;;;;35.13;14.37;;;;;;;2.45;75.83;100356.75;1619101;87;21233;-63
2021/03/02 10:31:57;;;;;;;30.43;13.67;;;;;;;2.49;75.77;100351.84;1616096;87;21786;-62
2021/03/02 10:34:25;;;;;;;24.87;12.60;;;;;;;2.54;75.72;100356.70;1611361;87;21245;-62
2021/03/02 10:36:55;;;;;;;29.00;13.67;;;;;;;2.56;75.45;100335.84;1618064;87;21274;-61
2021/03/02 10:39:22;;;;;;;34.20;15.33;;;;;;;2.59;75.44;100344.25;1618831;87;21281;-64
2021/03/02 10:41:50;;;;;;;29.67;14.07;;;;;;;2.57;75.33;100333.62;1616154;87;21249;-65
2021/03/02 10:44:17;;;;;;;28.10;13.27;;;;;;;2.56;75.29;100324.33;1619375;87;21609;-63
2021/03/02 10:46:44;;;;;;;34.07;13.47;;;;;;;2.56;75.37;100330.53;1618714;87;21165;-63
2021/03/02 10:49:12;;;;;;;25.50;11.73;;;;;;;2.58;75.23;100319.45;1590421;87;22609;-63
2021/03/02 10:51:39;;;;;;;29.10;13.47;;;;;;;2.61;75.27;100328.73;1617789;87;21214;-67
2021/03/02 10:54:08;;;;;;;28.17;13.53;;;;;;;2.63;75.23;100321.65;1616880;87;21234;-65
2021/03/02 10:56:36;;;;;;;28.93;13.83;;;;;;;2.66;75.15;100308.75;1618940;87;21241;-66
2021/03/02 10:59:05;;;;;;;25.23;12.60;;;;;;;2.70;75.10;100298.55;1616421;87;21293;-63
2021/03/02 11:01:32;;;;;;;29.33;15.27;;;;;;;2.71;74.90;100296.34;1614029;87;21967;-63
2021/03/02 11:04:01;;;;;;;29.00;13.10;;;;;;;2.68;74.93;100283.50;1612306;87;21329;-62
2021/03/02 11:06:29;;;;;;;25.50;12.20;;;;;;;2.69;74.89;100282.61;1609421;87;22707;-63
2021/03/02 11:09:01;;;;;;;27.80;12.63;;;;;;;2.71;74.78;100288.36;1606155;87;21264;-61
2021/03/02 11:11:29;;;;;;;27.50;13.27;;;;;;;2.73;74.71;100291.86;1607266;87;21238;-66
2021/03/02 11:13:56;;;;;;;27.77;12.80;;;;;;;2.76;74.50;100293.63;1607445;87;21390;-65
2021/03/02 11:16:24;;;;;;;29.40;13.67;;;;;;;2.77;74.53;100282.98;1606767;87;21215;-61
2021/03/02 11:18:54;;;;;;;32.17;15.03;;;;;;;2.79;74.45;100286.52;1608192;87;21162;-62
2021/03/02 11:21:22;;;;;;;30.23;13.57;;;;;;;2.78;74.43;100278.10;1607581;87;21146;-63
2021/03/02 11:23:49;;;;;;;24.63;12.33;;;;;;;2.80;74.35;100271.00;1608839;87;21145;-64
2021/03/02 11:26:16;;;;;;;28.63;13.33;;;;;;;2.83;74.33;100250.13;1607902;87;21040;-66
2021/03/02 11:28:44;;;;;;;28.23;13.17;;;;;;;2.86;74.21;100247.02;1607103;87;21166;-63
2021/03/02 11:31:12;;;;;;;26.70;12.83;;;;;;;2.89;74.09;100252.28;1606950;87;21206;-66
2021/03/02 11:33:39;;;;;;;24.53;12.40;;;;;;;2.92;73.94;100261.57;1610532;87;21146;-63
2021/03/02 11:36:09;;;;;;;26.53;13.67;;;;;;;2.94;73.95;100257.13;1605802;87;21021;-63
2021/03/02 11:38:36;;;;;;;27.10;14.13;;;;;;;2.98;73.78;100251.31;1605658;87;21401;-65
2021/03/02 11:41:04;;;;;;;29.03;15.13;;;;;;;3.00;73.67;100249.53;1604974;87;21264;-64
2021/03/02 11:43:32;;;;;;;31.33;14.33;;;;;;;3.00;73.29;100242.88;1605154;87;21222;-62